CYWA

Petawawa Airport

Petawawa, Ontario, Canada
METAR CYWA 241400Z AUTO 01008KT 9SM CLR 18/13 A2985 RMK SLP112
Observed Flight Rules
Jun-24 @ 14:00 UTC (an hour ago) Visual Flight Rules
Wind Visibility Clouds
10° at 8 knots 9 miles
  • Clear skies
Temperatures Readings
Current 18°C / 64°F
Dewpoint 13°C / 55°F
Humidity 73%
Altimeter 29.85" Hg
Pressure 1011.2 hPa
Elevation 130
METAR CYWA 241400Z AUTO 01008KT 9SM CLR 18/13 A2985 RMK SLP112
Observed Flight Rules
Jun-24 @ 14:00 UTC
(an hour ago)
VFR
Wind Visibility
10° at 8 knots 9 miles
Clouds
  • Clear skies
Temperature Dewpoint
18°C / 64°F 13°C / 55°F
Humidity Altimeter Pressure
73% 29.85" Hg 1011.2 hPa